LXR weather

Luxor International Airport
Luxor, Qena Governorate, Egypt

Public forecast

Using degrees Celsius for public forecast. Weather courtesy of forecast.io.

METAR (pilot weather report)

Retrieved 2019/04/23 03:00 UTC (32 minutes ago):

HELX 230300Z 00000KT CAVOK 15/M01 Q1016 NOSIG

TAF (pilot weather forecast)

Forecast is more than 12 hours old.

Retrieved 2019/04/22 00:47 UTC (1 day ago):

TAF HELX 222300Z 2300/2406 31008KT CAVOK